sensor_id;sensor_type;location;lat;lon;timestamp;P1;durP1;ratioP1;P2;durP2;ratioP2
72319;SDS011;60269;52.502;16.732;2022-07-29T00:02:35;8.05;;;1.67;;
72319;SDS011;60269;52.502;16.732;2022-07-29T00:06:14;10.90;;;1.33;;
72319;SDS011;60269;52.502;16.732;2022-07-29T00:10:13;9.68;;;1.40;;
72319;SDS011;60269;52.502;16.732;2022-07-29T00:14:12;5.90;;;1.40;;
72319;SDS011;60269;52.502;16.732;2022-07-29T00:17:57;8.67;;;1.50;;
72319;SDS011;60269;52.502;16.732;2022-07-29T00:21:42;12.00;;;1.75;;
72319;SDS011;60269;52.502;16.732;2022-07-29T00:25:27;7.03;;;1.52;;
72319;SDS011;60269;52.502;16.732;2022-07-29T00:29:19;18.20;;;1.85;;
72319;SDS011;60269;52.502;16.732;2022-07-29T00:33:12;8.43;;;1.80;;
72319;SDS011;60269;52.502;16.732;2022-07-29T00:37:04;12.23;;;1.80;;
72319;SDS011;60269;52.502;16.732;2022-07-29T00:40:49;9.45;;;1.70;;
72319;SDS011;60269;52.502;16.732;2022-07-29T00:44:40;7.50;;;1.83;;
72319;SDS011;60269;52.502;16.732;2022-07-29T00:48:26;9.98;;;1.80;;
72319;SDS011;60269;52.502;16.732;2022-07-29T00:52:18;6.93;;;2.00;;
72319;SDS011;60269;52.502;16.732;2022-07-29T00:56:03;7.95;;;2.00;;
72319;SDS011;60269;52.502;16.732;2022-07-29T00:59:55;6.93;;;1.85;;
72319;SDS011;60269;52.502;16.732;2022-07-29T01:03:40;7.65;;;2.45;;
72319;SDS011;60269;52.502;16.732;2022-07-29T01:07:32;7.88;;;1.75;;
72319;SDS011;60269;52.502;16.732;2022-07-29T01:11:13;8.10;;;1.70;;
72319;SDS011;60269;52.502;16.732;2022-07-29T01:15:09;9.38;;;1.95;;
72319;SDS011;60269;52.502;16.732;2022-07-29T01:18:47;12.32;;;2.25;;
72319;SDS011;60269;52.502;16.732;2022-07-29T01:26:52;7.20;;;1.70;;
72319;SDS011;60269;52.502;16.732;2022-07-29T01:30:46;6.67;;;1.67;;
72319;SDS011;60269;52.502;16.732;2022-07-29T01:38:33;8.07;;;2.05;;
72319;SDS011;60269;52.502;16.732;2022-07-29T01:42:27;5.50;;;1.50;;
72319;SDS011;60269;52.502;16.732;2022-07-29T01:46:34;6.30;;;1.93;;
72319;SDS011;60269;52.502;16.732;2022-07-29T01:50:22;6.37;;;1.67;;
72319;SDS011;60269;52.502;16.732;2022-07-29T01:54:22;6.25;;;1.75;;
72319;SDS011;60269;52.502;16.732;2022-07-29T01:58:13;6.10;;;1.65;;
72319;SDS011;60269;52.502;16.732;2022-07-29T02:02:06;8.68;;;2.17;;
72319;SDS011;60269;52.502;16.732;2022-07-29T02:05:53;9.00;;;2.00;;
72319;SDS011;60269;52.502;16.732;2022-07-29T02:09:49;8.90;;;2.03;;
72319;SDS011;60269;52.502;16.732;2022-07-29T02:13:28;7.85;;;2.50;;
72319;SDS011;60269;52.502;16.732;2022-07-29T02:17:49;10.35;;;2.35;;
72319;SDS011;60269;52.502;16.732;2022-07-29T02:21:32;9.03;;;2.50;;
72319;SDS011;60269;52.502;16.732;2022-07-29T02:25:32;7.73;;;2.07;;
72319;SDS011;60269;52.502;16.732;2022-07-29T02:29:31;7.45;;;2.38;;
72319;SDS011;60269;52.502;16.732;2022-07-29T02:33:12;9.48;;;2.13;;
72319;SDS011;60269;52.502;16.732;2022-07-29T02:37:06;7.60;;;2.10;;
72319;SDS011;60269;52.502;16.732;2022-07-29T02:40:49;13.60;;;2.43;;
72319;SDS011;60269;52.502;16.732;2022-07-29T02:44:43;8.18;;;2.70;;
72319;SDS011;60269;52.502;16.732;2022-07-29T02:48:22;11.40;;;2.80;;
72319;SDS011;60269;52.502;16.732;2022-07-29T02:56:34;9.43;;;2.23;;
72319;SDS011;60269;52.502;16.732;2022-07-29T03:00:30;7.60;;;2.20;;
72319;SDS011;60269;52.502;16.732;2022-07-29T03:04:19;7.43;;;2.15;;
72319;SDS011;60269;52.502;16.732;2022-07-29T03:08:09;7.68;;;2.40;;
72319;SDS011;60269;52.502;16.732;2022-07-29T03:11:56;9.63;;;2.50;;
72319;SDS011;60269;52.502;16.732;2022-07-29T03:15:42;8.63;;;2.40;;
72319;SDS011;60269;52.502;16.732;2022-07-29T03:19:29;8.90;;;2.47;;
72319;SDS011;60269;52.502;16.732;2022-07-29T03:23:18;7.68;;;2.50;;
72319;SDS011;60269;52.502;16.732;2022-07-29T03:27:10;8.52;;;2.78;;
72319;SDS011;60269;52.502;16.732;2022-07-29T03:31:02;10.67;;;2.10;;
72319;SDS011;60269;52.502;16.732;2022-07-29T03:34:47;7.73;;;2.60;;
72319;SDS011;60269;52.502;16.732;2022-07-29T03:38:39;7.68;;;2.25;;
72319;SDS011;60269;52.502;16.732;2022-07-29T03:42:28;9.40;;;2.13;;
72319;SDS011;60269;52.502;16.732;2022-07-29T03:46:23;8.48;;;1.98;;
72319;SDS011;60269;52.502;16.732;2022-07-29T03:50:07;8.63;;;2.10;;
72319;SDS011;60269;52.502;16.732;2022-07-29T03:54:08;9.57;;;2.30;;
72319;SDS011;60269;52.502;16.732;2022-07-29T03:57:50;6.88;;;1.52;;
72319;SDS011;60269;52.502;16.732;2022-07-29T04:01:42;12.93;;;2.85;;
72319;SDS011;60269;52.502;16.732;2022-07-29T04:05:28;6.27;;;2.13;;
72319;SDS011;60269;52.502;16.732;2022-07-29T04:09:20;10.63;;;2.17;;
72319;SDS011;60269;52.502;16.732;2022-07-29T04:13:05;11.45;;;2.33;;
72319;SDS011;60269;52.502;16.732;2022-07-29T04:17:05;7.85;;;1.80;;
72319;SDS011;60269;52.502;16.732;2022-07-29T04:21:04;6.87;;;2.27;;
72319;SDS011;60269;52.502;16.732;2022-07-29T04:24:50;12.20;;;1.90;;
72319;SDS011;60269;52.502;16.732;2022-07-29T04:28:41;9.80;;;1.50;;
72319;SDS011;60269;52.502;16.732;2022-07-29T04:32:27;5.70;;;1.27;;
72319;SDS011;60269;52.502;16.732;2022-07-29T04:36:19;7.47;;;1.90;;
72319;SDS011;60269;52.502;16.732;2022-07-29T04:40:06;8.67;;;1.90;;
72319;SDS011;60269;52.502;16.732;2022-07-29T04:43:59;9.82;;;1.65;;
72319;SDS011;60269;52.502;16.732;2022-07-29T04:47:49;10.45;;;1.75;;
72319;SDS011;60269;52.502;16.732;2022-07-29T04:51:41;5.78;;;1.98;;
72319;SDS011;60269;52.502;16.732;2022-07-29T04:55:19;9.17;;;1.60;;
72319;SDS011;60269;52.502;16.732;2022-07-29T04:59:11;7.63;;;1.57;;
72319;SDS011;60269;52.502;16.732;2022-07-29T05:02:50;10.73;;;2.05;;
72319;SDS011;60269;52.502;16.732;2022-07-29T05:06:42;10.40;;;1.30;;
72319;SDS011;60269;52.502;16.732;2022-07-29T05:10:20;6.57;;;1.35;;
72319;SDS011;60269;52.502;16.732;2022-07-29T05:14:12;6.67;;;1.50;;
72319;SDS011;60269;52.502;16.732;2022-07-29T05:17:57;7.37;;;1.50;;
72319;SDS011;60269;52.502;16.732;2022-07-29T05:21:56;4.68;;;1.17;;
72319;SDS011;60269;52.502;16.732;2022-07-29T05:25:34;8.70;;;1.67;;
72319;SDS011;60269;52.502;16.732;2022-07-29T05:29:33;5.78;;;1.35;;
72319;SDS011;60269;52.502;16.732;2022-07-29T05:33:32;5.33;;;1.37;;
72319;SDS011;60269;52.502;16.732;2022-07-29T05:37:10;5.67;;;1.57;;
72319;SDS011;60269;52.502;16.732;2022-07-29T05:41:09;6.03;;;1.55;;
72319;SDS011;60269;52.502;16.732;2022-07-29T05:44:47;5.65;;;1.30;;
72319;SDS011;60269;52.502;16.732;2022-07-29T05:48:39;7.47;;;1.77;;
72319;SDS011;60269;52.502;16.732;2022-07-29T05:52:17;8.37;;;1.40;;
72319;SDS011;60269;52.502;16.732;2022-07-29T05:56:16;5.40;;;1.20;;
72319;SDS011;60269;52.502;16.732;2022-07-29T06:00:15;7.40;;;1.30;;
72319;SDS011;60269;52.502;16.732;2022-07-29T06:03:53;5.18;;;1.27;;
72319;SDS011;60269;52.502;16.732;2022-07-29T06:07:45;5.32;;;1.10;;
72319;SDS011;60269;52.502;16.732;2022-07-29T06:11:23;5.63;;;1.43;;
72319;SDS011;60269;52.502;16.732;2022-07-29T06:15:22;6.20;;;1.63;;
72319;SDS011;60269;52.502;16.732;2022-07-29T06:19:00;5.28;;;1.40;;
72319;SDS011;60269;52.502;16.732;2022-07-29T06:22:59;5.90;;;1.30;;
72319;SDS011;60269;52.502;16.732;2022-07-29T06:26:40;7.20;;;1.42;;
72319;SDS011;60269;52.502;16.732;2022-07-29T06:30:33;6.40;;;1.70;;
72319;SDS011;60269;52.502;16.732;2022-07-29T06:34:18;7.37;;;1.80;;
72319;SDS011;60269;52.502;16.732;2022-07-29T06:38:10;11.80;;;1.85;;
72319;SDS011;60269;52.502;16.732;2022-07-29T06:42:09;6.07;;;2.10;;
72319;SDS011;60269;52.502;16.732;2022-07-29T06:46:01;5.68;;;1.70;;
72319;SDS011;60269;52.502;16.732;2022-07-29T06:49:48;7.57;;;1.67;;
72319;SDS011;60269;52.502;16.732;2022-07-29T06:53:40;6.00;;;1.65;;
72319;SDS011;60269;52.502;16.732;2022-07-29T06:57:33;4.97;;;1.55;;
72319;SDS011;60269;52.502;16.732;2022-07-29T07:01:39;5.07;;;1.63;;
72319;SDS011;60269;52.502;16.732;2022-07-29T07:05:40;3.88;;;1.15;;
72319;SDS011;60269;52.502;16.732;2022-07-29T07:09:18;7.53;;;1.30;;
72319;SDS011;60269;52.502;16.732;2022-07-29T07:13:24;6.07;;;1.33;;
72319;SDS011;60269;52.502;16.732;2022-07-29T07:17:26;5.05;;;1.25;;
72319;SDS011;60269;52.502;16.732;2022-07-29T07:21:04;12.73;;;1.50;;
72319;SDS011;60269;52.502;16.732;2022-07-29T07:25:03;7.50;;;1.33;;
72319;SDS011;60269;52.502;16.732;2022-07-29T07:28:41;5.90;;;1.10;;
72319;SDS011;60269;52.502;16.732;2022-07-29T07:32:40;5.65;;;1.40;;
72319;SDS011;60269;52.502;16.732;2022-07-29T07:36:19;7.68;;;1.13;;
72319;SDS011;60269;52.502;16.732;2022-07-29T07:40:11;6.20;;;1.48;;
72319;SDS011;60269;52.502;16.732;2022-07-29T07:43:57;6.23;;;1.53;;
72319;SDS011;60269;52.502;16.732;2022-07-29T07:47:55;5.60;;;1.30;;
72319;SDS011;60269;52.502;16.732;2022-07-29T07:51:33;10.00;;;1.38;;
72319;SDS011;60269;52.502;16.732;2022-07-29T07:55:28;5.38;;;0.95;;
72319;SDS011;60269;52.502;16.732;2022-07-29T07:59:33;5.78;;;1.15;;
72319;SDS011;60269;52.502;16.732;2022-07-29T08:03:32;7.40;;;1.20;;
72319;SDS011;60269;52.502;16.732;2022-07-29T08:07:11;5.87;;;1.33;;
72319;SDS011;60269;52.502;16.732;2022-07-29T08:11:10;6.45;;;1.05;;
72319;SDS011;60269;52.502;16.732;2022-07-29T08:14:49;8.52;;;1.23;;
72319;SDS011;60269;52.502;16.732;2022-07-29T08:18:48;6.43;;;0.85;;
72319;SDS011;60269;52.502;16.732;2022-07-29T08:22:48;5.87;;;1.30;;
72319;SDS011;60269;52.502;16.732;2022-07-29T08:26:26;7.97;;;1.20;;
72319;SDS011;60269;52.502;16.732;2022-07-29T08:30:18;6.68;;;1.10;;
72319;SDS011;60269;52.502;16.732;2022-07-29T08:33:56;5.53;;;1.05;;
72319;SDS011;60269;52.502;16.732;2022-07-29T08:37:55;6.28;;;1.00;;
72319;SDS011;60269;52.502;16.732;2022-07-29T08:41:34;4.77;;;1.00;;
72319;SDS011;60269;52.502;16.732;2022-07-29T08:45:42;5.33;;;0.73;;
72319;SDS011;60269;52.502;16.732;2022-07-29T08:49:22;9.05;;;1.30;;
72319;SDS011;60269;52.502;16.732;2022-07-29T08:53:16;7.53;;;1.27;;
72319;SDS011;60269;52.502;16.732;2022-07-29T08:57:02;8.10;;;0.98;;
72319;SDS011;60269;52.502;16.732;2022-07-29T09:00:55;7.10;;;1.00;;
72319;SDS011;60269;52.502;16.732;2022-07-29T09:04:43;6.20;;;0.90;;
72319;SDS011;60269;52.502;16.732;2022-07-29T09:08:28;4.88;;;1.10;;
72319;SDS011;60269;52.502;16.732;2022-07-29T09:12:15;4.85;;;1.30;;
72319;SDS011;60269;52.502;16.732;2022-07-29T09:16:12;8.25;;;1.08;;
72319;SDS011;60269;52.502;16.732;2022-07-29T09:20:18;7.50;;;1.40;;
72319;SDS011;60269;52.502;16.732;2022-07-29T09:28:19;5.88;;;0.93;;
72319;SDS011;60269;52.502;16.732;2022-07-29T09:32:11;9.50;;;0.90;;
72319;SDS011;60269;52.502;16.732;2022-07-29T09:36:00;4.97;;;1.00;;
72319;SDS011;60269;52.502;16.732;2022-07-29T09:39:56;5.13;;;0.83;;
72319;SDS011;60269;52.502;16.732;2022-07-29T09:43:52;9.87;;;1.07;;
72319;SDS011;60269;52.502;16.732;2022-07-29T09:47:50;8.10;;;1.35;;
72319;SDS011;60269;52.502;16.732;2022-07-29T09:51:35;20.35;;;3.08;;
72319;SDS011;60269;52.502;16.732;2022-07-29T09:55:28;6.95;;;1.30;;
72319;SDS011;60269;52.502;16.732;2022-07-29T09:59:07;4.60;;;1.17;;
72319;SDS011;60269;52.502;16.732;2022-07-29T10:03:00;4.33;;;1.00;;
72319;SDS011;60269;52.502;16.732;2022-07-29T10:06:55;5.43;;;1.17;;
72319;SDS011;60269;52.502;16.732;2022-07-29T10:11:08;5.70;;;1.30;;
72319;SDS011;60269;52.502;16.732;2022-07-29T10:14:53;5.05;;;1.35;;
72319;SDS011;60269;52.502;16.732;2022-07-29T10:18:53;6.23;;;1.60;;
72319;SDS011;60269;52.502;16.732;2022-07-29T10:22:31;8.53;;;1.60;;
72319;SDS011;60269;52.502;16.732;2022-07-29T10:26:37;6.68;;;1.23;;
72319;SDS011;60269;52.502;16.732;2022-07-29T10:30:19;9.55;;;2.30;;
72319;SDS011;60269;52.502;16.732;2022-07-29T10:34:32;7.15;;;1.63;;
72319;SDS011;60269;52.502;16.732;2022-07-29T10:42:40;6.83;;;1.60;;
72319;SDS011;60269;52.502;16.732;2022-07-29T10:46:21;8.60;;;1.83;;
72319;SDS011;60269;52.502;16.732;2022-07-29T10:50:22;6.00;;;1.42;;
72319;SDS011;60269;52.502;16.732;2022-07-29T10:54:00;10.90;;;1.35;;
72319;SDS011;60269;52.502;16.732;2022-07-29T11:01:50;6.50;;;1.13;;
72319;SDS011;60269;52.502;16.732;2022-07-29T11:06:09;7.13;;;1.50;;
72319;SDS011;60269;52.502;16.732;2022-07-29T11:14:04;5.53;;;1.57;;
72319;SDS011;60269;52.502;16.732;2022-07-29T11:21:50;7.60;;;2.72;;
72319;SDS011;60269;52.502;16.732;2022-07-29T11:29:59;7.70;;;2.20;;
72319;SDS011;60269;52.502;16.732;2022-07-29T11:34:15;8.38;;;2.45;;
72319;SDS011;60269;52.502;16.732;2022-07-29T11:46:44;5.50;;;2.00;;
72319;SDS011;60269;52.502;16.732;2022-07-29T11:54:35;6.18;;;1.63;;
72319;SDS011;60269;52.502;16.732;2022-07-29T11:58:35;8.73;;;2.03;;
72319;SDS011;60269;52.502;16.732;2022-07-29T12:02:21;6.80;;;2.40;;
72319;SDS011;60269;52.502;16.732;2022-07-29T12:06:15;12.25;;;2.60;;
72319;SDS011;60269;52.502;16.732;2022-07-29T12:10:00;7.68;;;2.78;;
72319;SDS011;60269;52.502;16.732;2022-07-29T12:13:56;5.87;;;3.17;;
72319;SDS011;60269;52.502;16.732;2022-07-29T12:17:52;6.50;;;2.70;;
72319;SDS011;60269;52.502;16.732;2022-07-29T12:21:44;4.85;;;2.70;;
72319;SDS011;60269;52.502;16.732;2022-07-29T12:25:40;5.77;;;2.47;;
72319;SDS011;60269;52.502;16.732;2022-07-29T12:29:26;6.43;;;2.10;;
72319;SDS011;60269;52.502;16.732;2022-07-29T12:33:14;5.55;;;2.53;;
72319;SDS011;60269;52.502;16.732;2022-07-29T12:37:03;6.85;;;2.28;;
72319;SDS011;60269;52.502;16.732;2022-07-29T12:40:55;5.40;;;2.10;;
72319;SDS011;60269;52.502;16.732;2022-07-29T12:48:42;7.85;;;2.40;;
72319;SDS011;60269;52.502;16.732;2022-07-29T12:52:28;8.25;;;2.85;;
72319;SDS011;60269;52.502;16.732;2022-07-29T12:56:22;5.63;;;1.97;;
72319;SDS011;60269;52.502;16.732;2022-07-29T13:00:23;5.75;;;2.55;;
72319;SDS011;60269;52.502;16.732;2022-07-29T13:04:25;5.50;;;2.20;;
72319;SDS011;60269;52.502;16.732;2022-07-29T13:08:09;8.90;;;2.27;;
72319;SDS011;60269;52.502;16.732;2022-07-29T13:12:11;8.00;;;1.97;;
72319;SDS011;60269;52.502;16.732;2022-07-29T13:16:05;9.65;;;1.90;;
72319;SDS011;60269;52.502;16.732;2022-07-29T13:20:07;9.20;;;2.53;;
72319;SDS011;60269;52.502;16.732;2022-07-29T13:23:56;6.63;;;3.10;;
72319;SDS011;60269;52.502;16.732;2022-07-29T13:27:48;5.50;;;2.53;;
72319;SDS011;60269;52.502;16.732;2022-07-29T13:31:26;4.95;;;2.80;;
72319;SDS011;60269;52.502;16.732;2022-07-29T13:35:18;8.52;;;3.30;;
72319;SDS011;60269;52.502;16.732;2022-07-29T13:39:04;6.47;;;2.43;;
72319;SDS011;60269;52.502;16.732;2022-07-29T13:42:56;5.47;;;3.28;;
72319;SDS011;60269;52.502;16.732;2022-07-29T13:46:35;8.05;;;2.97;;
72319;SDS011;60269;52.502;16.732;2022-07-29T13:50:26;7.60;;;2.55;;
72319;SDS011;60269;52.502;16.732;2022-07-29T13:54:11;7.03;;;1.70;;
72319;SDS011;60269;52.502;16.732;2022-07-29T13:58:03;5.45;;;2.63;;
72319;SDS011;60269;52.502;16.732;2022-07-29T14:01:42;5.45;;;2.22;;
72319;SDS011;60269;52.502;16.732;2022-07-29T14:05:41;9.20;;;2.97;;
72319;SDS011;60269;52.502;16.732;2022-07-29T14:09:20;8.48;;;3.00;;
72319;SDS011;60269;52.502;16.732;2022-07-29T14:13:25;7.63;;;2.03;;
72319;SDS011;60269;52.502;16.732;2022-07-29T14:17:24;5.33;;;2.80;;
72319;SDS011;60269;52.502;16.732;2022-07-29T14:21:03;4.90;;;1.98;;
72319;SDS011;60269;52.502;16.732;2022-07-29T14:25:01;6.65;;;2.95;;
72319;SDS011;60269;52.502;16.732;2022-07-29T14:29:00;6.43;;;3.30;;
72319;SDS011;60269;52.502;16.732;2022-07-29T14:32:39;10.17;;;3.10;;
72319;SDS011;60269;52.502;16.732;2022-07-29T14:36:37;5.55;;;2.45;;
72319;SDS011;60269;52.502;16.732;2022-07-29T14:40:16;6.03;;;3.20;;
72319;SDS011;60269;52.502;16.732;2022-07-29T14:44:07;5.80;;;3.03;;
72319;SDS011;60269;52.502;16.732;2022-07-29T14:47:46;7.70;;;3.17;;
72319;SDS011;60269;52.502;16.732;2022-07-29T14:51:45;5.15;;;3.03;;
72319;SDS011;60269;52.502;16.732;2022-07-29T14:55:24;6.70;;;2.88;;
72319;SDS011;60269;52.502;16.732;2022-07-29T14:59:16;6.23;;;2.57;;
72319;SDS011;60269;52.502;16.732;2022-07-29T15:02:55;6.45;;;2.58;;
72319;SDS011;60269;52.502;16.732;2022-07-29T15:06:55;7.05;;;3.38;;
72319;SDS011;60269;52.502;16.732;2022-07-29T15:10:34;7.63;;;2.78;;
72319;SDS011;60269;52.502;16.732;2022-07-29T15:14:33;6.13;;;2.70;;
72319;SDS011;60269;52.502;16.732;2022-07-29T15:18:12;5.47;;;2.33;;
72319;SDS011;60269;52.502;16.732;2022-07-29T15:22:09;6.32;;;2.50;;
72319;SDS011;60269;52.502;16.732;2022-07-29T15:25:48;5.70;;;2.20;;
72319;SDS011;60269;52.502;16.732;2022-07-29T15:29:42;5.55;;;2.83;;
72319;SDS011;60269;52.502;16.732;2022-07-29T15:33:22;6.30;;;2.08;;
72319;SDS011;60269;52.502;16.732;2022-07-29T15:37:20;7.70;;;2.85;;
72319;SDS011;60269;52.502;16.732;2022-07-29T15:41:33;4.57;;;2.80;;
72319;SDS011;60269;52.502;16.732;2022-07-29T15:45:11;6.00;;;2.38;;
72319;SDS011;60269;52.502;16.732;2022-07-29T15:49:04;8.43;;;2.17;;
72319;SDS011;60269;52.502;16.732;2022-07-29T15:52:44;5.35;;;1.77;;
72319;SDS011;60269;52.502;16.732;2022-07-29T15:56:42;5.97;;;1.83;;
72319;SDS011;60269;52.502;16.732;2022-07-29T16:00:20;4.72;;;1.88;;
72319;SDS011;60269;52.502;16.732;2022-07-29T16:04:12;4.75;;;2.33;;
72319;SDS011;60269;52.502;16.732;2022-07-29T16:07:57;5.43;;;2.85;;
72319;SDS011;60269;52.502;16.732;2022-07-29T16:11:49;5.30;;;3.23;;
72319;SDS011;60269;52.502;16.732;2022-07-29T16:15:30;7.82;;;2.53;;
72319;SDS011;60269;52.502;16.732;2022-07-29T16:19:39;7.65;;;2.15;;
72319;SDS011;60269;52.502;16.732;2022-07-29T16:23:17;10.65;;;2.20;;
72319;SDS011;60269;52.502;16.732;2022-07-29T16:27:09;5.33;;;2.33;;
72319;SDS011;60269;52.502;16.732;2022-07-29T16:30:54;10.87;;;2.93;;
72319;SDS011;60269;52.502;16.732;2022-07-29T16:34:46;5.68;;;2.25;;
72319;SDS011;60269;52.502;16.732;2022-07-29T16:38:24;7.57;;;2.33;;
72319;SDS011;60269;52.502;16.732;2022-07-29T16:42:24;5.63;;;2.20;;
72319;SDS011;60269;52.502;16.732;2022-07-29T16:46:23;4.87;;;2.33;;
72319;SDS011;60269;52.502;16.732;2022-07-29T16:50:18;4.17;;;1.87;;
72319;SDS011;60269;52.502;16.732;2022-07-29T16:53:56;8.02;;;2.20;;
72319;SDS011;60269;52.502;16.732;2022-07-29T16:57:49;9.23;;;2.13;;
72319;SDS011;60269;52.502;16.732;2022-07-29T17:01:29;5.53;;;2.28;;
72319;SDS011;60269;52.502;16.732;2022-07-29T17:05:21;8.13;;;2.53;;
72319;SDS011;60269;52.502;16.732;2022-07-29T17:09:26;4.75;;;1.63;;
72319;SDS011;60269;52.502;16.732;2022-07-29T17:13:18;8.02;;;2.35;;
72319;SDS011;60269;52.502;16.732;2022-07-29T17:16:57;5.45;;;1.40;;
72319;SDS011;60269;52.502;16.732;2022-07-29T17:20:57;8.30;;;1.88;;
72319;SDS011;60269;52.502;16.732;2022-07-29T17:24:42;5.13;;;1.67;;
72319;SDS011;60269;52.502;16.732;2022-07-29T17:28:34;10.70;;;1.60;;
72319;SDS011;60269;52.502;16.732;2022-07-29T17:32:12;6.32;;;1.75;;
72319;SDS011;60269;52.502;16.732;2022-07-29T17:36:04;3.83;;;1.40;;
72319;SDS011;60269;52.502;16.732;2022-07-29T17:40:08;5.32;;;1.17;;
72319;SDS011;60269;52.502;16.732;2022-07-29T17:43:53;12.73;;;1.60;;
72319;SDS011;60269;52.502;16.732;2022-07-29T17:47:38;6.43;;;1.38;;
72319;SDS011;60269;52.502;16.732;2022-07-29T17:51:30;6.65;;;1.55;;
72319;SDS011;60269;52.502;16.732;2022-07-29T17:55:15;5.65;;;1.10;;
72319;SDS011;60269;52.502;16.732;2022-07-29T17:59:07;3.20;;;0.93;;
72319;SDS011;60269;52.502;16.732;2022-07-29T18:02:47;7.03;;;1.00;;
72319;SDS011;60269;52.502;16.732;2022-07-29T18:06:45;5.03;;;1.10;;
72319;SDS011;60269;52.502;16.732;2022-07-29T18:10:24;4.55;;;0.90;;
72319;SDS011;60269;52.502;16.732;2022-07-29T18:14:16;5.82;;;1.15;;
72319;SDS011;60269;52.502;16.732;2022-07-29T18:17:55;4.18;;;1.05;;
72319;SDS011;60269;52.502;16.732;2022-07-29T18:21:54;7.10;;;1.03;;
72319;SDS011;60269;52.502;16.732;2022-07-29T18:25:36;3.38;;;1.10;;
72319;SDS011;60269;52.502;16.732;2022-07-29T18:29:35;5.78;;;0.80;;
72319;SDS011;60269;52.502;16.732;2022-07-29T18:33:34;4.47;;;0.93;;
72319;SDS011;60269;52.502;16.732;2022-07-29T18:37:13;4.70;;;1.02;;
72319;SDS011;60269;52.502;16.732;2022-07-29T18:41:24;6.07;;;1.30;;
72319;SDS011;60269;52.502;16.732;2022-07-29T18:45:03;8.23;;;1.08;;
72319;SDS011;60269;52.502;16.732;2022-07-29T18:49:03;4.82;;;1.23;;
72319;SDS011;60269;52.502;16.732;2022-07-29T18:52:42;7.20;;;1.10;;
72319;SDS011;60269;52.502;16.732;2022-07-29T18:56:34;7.75;;;1.15;;
72319;SDS011;60269;52.502;16.732;2022-07-29T19:00:20;7.10;;;1.20;;
72319;SDS011;60269;52.502;16.732;2022-07-29T19:04:18;4.47;;;0.90;;
72319;SDS011;60269;52.502;16.732;2022-07-29T19:07:57;4.70;;;1.48;;
72319;SDS011;60269;52.502;16.732;2022-07-29T19:11:49;5.00;;;1.27;;
72319;SDS011;60269;52.502;16.732;2022-07-29T19:15:33;10.15;;;1.33;;
72319;SDS011;60269;52.502;16.732;2022-07-29T19:19:25;10.70;;;1.10;;
72319;SDS011;60269;52.502;16.732;2022-07-29T19:23:11;5.20;;;1.15;;
72319;SDS011;60269;52.502;16.732;2022-07-29T19:27:02;6.72;;;1.00;;
72319;SDS011;60269;52.502;16.732;2022-07-29T19:30:48;6.18;;;0.98;;
72319;SDS011;60269;52.502;16.732;2022-07-29T19:34:39;7.20;;;1.05;;
72319;SDS011;60269;52.502;16.732;2022-07-29T19:38:27;9.97;;;1.17;;
72319;SDS011;60269;52.502;16.732;2022-07-29T19:42:18;5.13;;;1.10;;
72319;SDS011;60269;52.502;16.732;2022-07-29T19:45:57;7.35;;;1.35;;
72319;SDS011;60269;52.502;16.732;2022-07-29T19:49:48;6.20;;;1.02;;
72319;SDS011;60269;52.502;16.732;2022-07-29T19:53:34;5.15;;;1.23;;
72319;SDS011;60269;52.502;16.732;2022-07-29T19:57:18;7.33;;;1.10;;
72319;SDS011;60269;52.502;16.732;2022-07-29T20:01:15;6.18;;;1.20;;
72319;SDS011;60269;52.502;16.732;2022-07-29T20:05:00;8.02;;;1.52;;
72319;SDS011;60269;52.502;16.732;2022-07-29T20:08:46;5.07;;;1.10;;
72319;SDS011;60269;52.502;16.732;2022-07-29T20:12:37;3.97;;;1.02;;
72319;SDS011;60269;52.502;16.732;2022-07-29T20:16:26;5.33;;;0.90;;
72319;SDS011;60269;52.502;16.732;2022-07-29T20:20:10;9.68;;;1.20;;
72319;SDS011;60269;52.502;16.732;2022-07-29T20:23:56;6.38;;;1.17;;
72319;SDS011;60269;52.502;16.732;2022-07-29T20:27:47;7.15;;;1.00;;
72319;SDS011;60269;52.502;16.732;2022-07-29T20:31:29;4.82;;;1.25;;
72319;SDS011;60269;52.502;16.732;2022-07-29T20:35:20;6.93;;;1.60;;
72319;SDS011;60269;52.502;16.732;2022-07-29T20:38:59;5.63;;;1.15;;
72319;SDS011;60269;52.502;16.732;2022-07-29T20:42:50;6.70;;;1.20;;
72319;SDS011;60269;52.502;16.732;2022-07-29T20:46:36;5.57;;;1.30;;
72319;SDS011;60269;52.502;16.732;2022-07-29T20:50:27;9.73;;;1.52;;
72319;SDS011;60269;52.502;16.732;2022-07-29T20:54:06;6.27;;;1.30;;
72319;SDS011;60269;52.502;16.732;2022-07-29T20:57:57;7.78;;;1.25;;
72319;SDS011;60269;52.502;16.732;2022-07-29T21:01:36;8.27;;;1.20;;
72319;SDS011;60269;52.502;16.732;2022-07-29T21:05:27;9.63;;;1.13;;
72319;SDS011;60269;52.502;16.732;2022-07-29T21:09:13;9.55;;;1.55;;
72319;SDS011;60269;52.502;16.732;2022-07-29T21:13:04;7.50;;;1.13;;
72319;SDS011;60269;52.502;16.732;2022-07-29T21:16:50;5.95;;;1.13;;
72319;SDS011;60269;52.502;16.732;2022-07-29T21:20:35;6.20;;;1.10;;
72319;SDS011;60269;52.502;16.732;2022-07-29T21:24:21;4.45;;;0.98;;
72319;SDS011;60269;52.502;16.732;2022-07-29T21:28:12;7.18;;;1.50;;
72319;SDS011;60269;52.502;16.732;2022-07-29T21:32:16;6.10;;;1.10;;
72319;SDS011;60269;52.502;16.732;2022-07-29T21:36:10;5.85;;;1.00;;
72319;SDS011;60269;52.502;16.732;2022-07-29T21:40:16;6.68;;;1.15;;
72319;SDS011;60269;52.502;16.732;2022-07-29T21:44:00;3.95;;;0.73;;
72319;SDS011;60269;52.502;16.732;2022-07-29T21:47:46;3.70;;;0.90;;
72319;SDS011;60269;52.502;16.732;2022-07-29T21:51:37;6.00;;;0.90;;
72319;SDS011;60269;52.502;16.732;2022-07-29T21:55:16;9.25;;;0.98;;
72319;SDS011;60269;52.502;16.732;2022-07-29T21:59:15;6.55;;;1.20;;
72319;SDS011;60269;52.502;16.732;2022-07-29T22:02:54;5.13;;;0.90;;
72319;SDS011;60269;52.502;16.732;2022-07-29T22:06:52;4.82;;;0.70;;
72319;SDS011;60269;52.502;16.732;2022-07-29T22:10:32;4.50;;;0.70;;
72319;SDS011;60269;52.502;16.732;2022-07-29T22:14:31;4.00;;;0.75;;
72319;SDS011;60269;52.502;16.732;2022-07-29T22:18:10;4.38;;;0.80;;
72319;SDS011;60269;52.502;16.732;2022-07-29T22:22:08;4.20;;;0.80;;
72319;SDS011;60269;52.502;16.732;2022-07-29T22:25:54;5.70;;;0.63;;
72319;SDS011;60269;52.502;16.732;2022-07-29T22:29:40;4.33;;;0.50;;
72319;SDS011;60269;52.502;16.732;2022-07-29T22:33:26;3.67;;;0.70;;
72319;SDS011;60269;52.502;16.732;2022-07-29T22:37:17;2.55;;;0.40;;
72319;SDS011;60269;52.502;16.732;2022-07-29T22:40:56;5.25;;;0.38;;
72319;SDS011;60269;52.502;16.732;2022-07-29T22:44:52;4.47;;;0.40;;
72319;SDS011;60269;52.502;16.732;2022-07-29T22:48:31;2.77;;;0.40;;
72319;SDS011;60269;52.502;16.732;2022-07-29T22:52:22;3.60;;;0.50;;
72319;SDS011;60269;52.502;16.732;2022-07-29T22:56:08;2.22;;;0.47;;
72319;SDS011;60269;52.502;16.732;2022-07-29T23:00:06;5.15;;;0.52;;
72319;SDS011;60269;52.502;16.732;2022-07-29T23:03:48;3.75;;;0.50;;
72319;SDS011;60269;52.502;16.732;2022-07-29T23:07:47;5.80;;;0.47;;
72319;SDS011;60269;52.502;16.732;2022-07-29T23:11:26;4.22;;;0.50;;
72319;SDS011;60269;52.502;16.732;2022-07-29T23:15:18;2.88;;;0.45;;
72319;SDS011;60269;52.502;16.732;2022-07-29T23:19:04;3.88;;;0.40;;
72319;SDS011;60269;52.502;16.732;2022-07-29T23:22:55;3.80;;;0.40;;
72319;SDS011;60269;52.502;16.732;2022-07-29T23:26:34;5.20;;;0.40;;
72319;SDS011;60269;52.502;16.732;2022-07-29T23:30:27;3.67;;;0.47;;
72319;SDS011;60269;52.502;16.732;2022-07-29T23:34:13;3.28;;;0.38;;
72319;SDS011;60269;52.502;16.732;2022-07-29T23:38:04;3.13;;;0.60;;